Time;durP1;ratioP1;P1;durP2;ratioP2;P2;SDS_P1;SDS_P2;PMS_P1;PMS_P2;Temp;Humidity;BMP_temperature;BMP_pressure;BME280_temperature;BME280_humidity;BME280_pressure;Samples;Min_cycle;Max_cycle;Signal;HPM_P1;HPM_P2
2023/09/13 00:01:55;;;;;;;24.77;16.17;;;17.90;99.90;;;;;;4844436;29;20420;-92
2023/09/13 00:04:20;;;;;;;25.97;16.43;;;18.00;99.90;;;;;;4844900;29;20405;-92
2023/09/13 00:06:47;;;;;;;34.67;16.40;;;17.90;99.90;;;;;;4844736;29;20932;-91
2023/09/13 00:09:13;;;;;;;23.20;17.33;;;17.90;99.90;;;;;;4844499;29;20195;-91
2023/09/13 00:11:39;;;;;;;21.77;15.63;;;17.90;99.90;;;;;;4844871;29;20400;-91
2023/09/13 00:14:05;;;;;;;29.40;18.20;;;17.90;99.90;;;;;;4844453;29;20490;-92
2023/09/13 00:16:38;;;;;;;21.37;17.27;;;17.90;99.90;;;;;;4829492;29;20193;-92
2023/09/13 00:19:07;;;;;;;29.10;19.17;;;17.90;99.90;;;;;;4844707;29;20421;-92
2023/09/13 00:21:40;;;;;;;27.17;17.50;;;17.90;99.90;;;;;;4844488;29;20455;-92
2023/09/13 00:24:14;;;;;;;29.97;19.50;;;17.90;99.90;;;;;;4844529;29;20788;-92
2023/09/13 00:26:42;;;;;;;29.00;19.63;;;17.90;99.90;;;;;;4844655;29;20849;-92
2023/09/13 00:29:08;;;;;;;26.00;18.73;;;17.90;99.90;;;;;;4844252;29;20412;-92
2023/09/13 00:31:38;;;;;;;29.53;18.63;;;17.90;99.90;;;;;;4844432;29;20525;-92
2023/09/13 00:34:09;;;;;;;26.33;16.03;;;17.90;99.90;;;;;;4829242;29;20188;-92
2023/09/13 00:36:51;;;;;;;30.47;18.50;;;17.80;99.90;;;;;;4844502;29;20425;-92
2023/09/13 00:39:25;;;;;;;24.83;16.40;;;17.70;99.90;;;;;;4828661;29;20405;-92
2023/09/13 00:42:01;;;;;;;31.83;19.40;;;17.70;99.90;;;;;;4844201;29;20444;-92
2023/09/13 00:45:10;;;;;;;30.30;21.30;;;17.70;99.90;;;;;;4826485;29;20409;-93
2023/09/13 00:48:26;;;;;;;41.97;23.10;;;17.80;99.90;;;;;;4824986;29;20470;-92
2023/09/13 00:51:17;;;;;;;36.20;23.20;;;17.80;99.90;;;;;;4824891;29;20805;-92
2023/09/13 00:53:56;;;;;;;43.80;25.37;;;17.90;99.90;;;;;;4826246;29;20453;-92
2023/09/13 00:56:29;;;;;;;45.50;28.03;;;17.90;99.90;;;;;;4812186;29;20571;-92
2023/09/13 00:58:56;;;;;;;55.90;30.40;;;18.00;99.90;;;;;;4810521;29;20461;-91
2023/09/13 01:01:34;;;;;;;55.93;32.37;;;18.00;99.90;;;;;;4825087;29;20524;-91
2023/09/13 01:04:36;;;;;;;57.73;33.60;;;18.10;99.90;;;;;;4825587;29;20474;-92
2023/09/13 01:07:02;;;;;;;62.10;33.73;;;18.00;99.90;;;;;;4838315;29;20802;-92
2023/09/13 01:09:28;;;;;;;57.70;34.87;;;18.10;99.90;;;;;;4838430;29;20445;-92
2023/09/13 01:11:54;;;;;;;59.70;33.77;;;18.00;99.90;;;;;;4843973;29;20426;-92
2023/09/13 01:14:23;;;;;;;61.47;34.83;;;18.00;99.90;;;;;;4843994;29;20427;-92
2023/09/13 01:17:01;;;;;;;69.30;36.77;;;18.10;99.90;;;;;;4843724;29;20191;-92
2023/09/13 01:19:50;;;;;;;57.30;32.43;;;18.10;99.90;;;;;;4843710;29;20451;-92
2023/09/13 01:23:25;;;;;;;67.47;33.90;;;18.00;99.90;;;;;;4843400;29;20424;-92
2023/09/13 01:26:14;;;;;;;;;;;;;;;;;;;;;
2023/09/13 01:29:14;;;;;;;;;;;;;;;;;;;;;
2023/09/13 01:31:53;;;;;;;57.77;31.50;;;18.00;99.90;;;;;;4844415;29;20446;-91
2023/09/13 01:34:32;;;;;;;67.27;33.70;;;18.00;99.90;;;;;;4845436;29;20412;-91
2023/09/13 01:37:09;;;;;;;64.60;33.60;;;18.00;99.90;;;;;;4843084;29;20422;-91
2023/09/13 01:43:07;;;;;;;64.70;34.57;;;18.10;99.90;;;;;;4805381;29;20446;-92
2023/09/13 01:46:05;;;;;;;;;;;;;;;;;;;;;
2023/09/13 01:48:47;;;;;;;;;;;;;;;;;;;;;
2023/09/13 01:54:53;;;;;;;72.83;35.70;;;18.10;99.90;;;;;;4822698;29;20465;-90
2023/09/13 01:57:55;;;;;;;;;;;;;;;;;;;;;
2023/09/13 02:00:32;;;;;;;80.93;39.40;;;18.20;99.90;;;;;;4836500;29;20478;-90
2023/09/13 02:03:01;;;;;;;75.40;37.67;;;18.20;99.90;;;;;;4828371;29;20850;-91
2023/09/13 02:05:29;;;;;;;90.73;39.90;;;18.20;99.90;;;;;;4857760;29;20404;-91
2023/09/13 02:08:07;;;;;;;;;;;;;;;;;;;;;
2023/09/13 02:10:41;;;;;;;74.30;38.57;;;18.20;99.90;;;;;;4842680;29;20945;-91
2023/09/13 02:13:30;;;;;;;92.63;43.07;;;18.20;99.90;;;;;;4857773;29;20448;-90
2023/09/13 02:16:03;;;;;;;88.43;47.10;;;18.20;99.90;;;;;;4842772;29;20434;-91
2023/09/13 02:18:32;;;;;;;90.63;46.53;;;18.30;99.90;;;;;;4842352;29;20686;-91
2023/09/13 02:20:58;;;;;;;97.43;46.77;;;18.30;99.90;;;;;;4857562;29;20564;-90
2023/09/13 02:23:41;;;;;;;97.07;48.30;;;18.30;99.90;;;;;;4857507;29;21003;-90
2023/09/13 02:26:22;;;;;;;99.43;48.27;;;18.30;99.90;;;;;;4819484;29;20449;-90
2023/09/13 02:29:11;;;;;;;97.10;47.30;;;18.30;99.90;;;;;;4842325;29;20436;-90
2023/09/13 02:32:08;;;;;;;;;;;;;;;;;;;;;
2023/09/13 02:34:37;;;;;;;100.30;45.73;;;18.40;99.90;;;;;;4829846;29;20767;-90
2023/09/13 02:37:09;;;;;;;95.20;45.27;;;18.30;99.90;;;;;;4856925;29;20466;-90
2023/09/13 02:40:03;;;;;;;98.00;46.77;;;18.40;99.90;;;;;;4827487;29;20460;-90
2023/09/13 02:42:28;;;;;;;105.17;50.60;;;18.40;99.90;;;;;;4842678;29;20796;-91
2023/09/13 02:44:54;;;;;;;90.43;46.23;;;18.40;99.90;;;;;;4841939;29;20487;-90
2023/09/13 02:47:27;;;;;;;100.17;47.60;;;18.30;99.90;;;;;;4841888;29;20177;-90
2023/09/13 02:49:56;;;;;;;105.57;47.27;;;18.30;99.90;;;;;;4827047;29;20710;-90
2023/09/13 02:52:33;;;;;;;84.00;46.37;;;18.30;99.90;;;;;;4847088;29;20406;-90
2023/09/13 02:55:00;;;;;;;91.80;46.77;;;18.30;99.90;;;;;;4827762;29;20415;-90
2023/09/13 02:57:28;;;;;;;93.40;48.30;;;18.40;99.90;;;;;;4842198;29;20433;-91
2023/09/13 02:59:54;;;;;;;96.00;45.87;;;18.40;99.90;;;;;;4826747;29;20563;-91
2023/09/13 03:02:22;;;;;;;82.60;43.20;;;18.50;99.90;;;;;;4841583;29;20472;-91
2023/09/13 03:04:55;;;;;;;94.63;45.87;;;18.40;99.90;;;;;;4842283;29;20245;-91
2023/09/13 03:08:08;;;;;;;106.13;50.87;;;18.40;99.90;;;;;;4842390;29;20430;-91
2023/09/13 03:10:35;;;;;;;97.40;45.13;;;18.30;99.90;;;;;;4820984;29;20448;-90
2023/09/13 03:13:00;;;;;;;107.97;49.10;;;18.40;99.90;;;;;;4841786;29;20789;-90
2023/09/13 03:15:26;;;;;;;99.93;46.73;;;18.40;99.90;;;;;;4841731;29;20416;-90
2023/09/13 03:17:52;;;;;;;115.23;49.63;;;18.40;99.90;;;;;;4842983;29;20222;-90
2023/09/13 03:20:17;;;;;;;114.33;52.23;;;18.40;99.90;;;;;;4841684;29;20213;-90
2023/09/13 03:22:43;;;;;;;110.47;49.43;;;18.40;99.90;;;;;;4858089;29;20188;-91
2023/09/13 03:25:09;;;;;;;113.53;52.13;;;18.40;99.90;;;;;;4859946;29;20191;-91
2023/09/13 03:27:34;;;;;;;118.60;50.13;;;18.40;99.90;;;;;;4845407;29;20216;-91
2023/09/13 03:30:00;;;;;;;120.70;50.37;;;18.40;99.90;;;;;;4859897;29;20189;-91
2023/09/13 03:32:31;;;;;;;122.87;54.17;;;18.40;99.90;;;;;;4860801;29;20557;-91
2023/09/13 03:35:02;;;;;;;137.27;52.47;;;18.50;99.90;;;;;;4861097;29;20666;-91
2023/09/13 03:37:28;;;;;;;128.73;53.00;;;18.50;99.90;;;;;;4860016;29;20433;-91
2023/09/13 03:39:54;;;;;;;136.60;55.63;;;18.40;99.90;;;;;;4860374;29;20493;-90
2023/09/13 03:42:19;;;;;;;116.57;53.40;;;18.40;99.90;;;;;;4859928;29;20445;-90
2023/09/13 03:44:47;;;;;;;132.70;59.43;;;18.40;99.90;;;;;;4860505;29;20181;-92
2023/09/13 03:47:14;;;;;;;141.33;57.90;;;18.40;99.90;;;;;;4830986;29;20269;-91
2023/09/13 03:49:43;;;;;;;135.37;57.40;;;18.40;99.90;;;;;;4859924;29;20467;-91
2023/09/13 03:52:22;;;;;;;150.20;62.37;;;18.40;99.90;;;;;;4860424;29;20407;-90
2023/09/13 03:59:27;;;;;;;132.83;59.27;;;18.50;99.90;;;;;;4805378;29;20501;-91
2023/09/13 04:05:52;;;;;;;;;;;;;;;;;;;;;
2023/09/13 04:08:55;;;;;;;141.83;60.17;;;18.40;99.90;;;;;;4861847;29;20435;-90
2023/09/13 04:12:23;;;;;;;;;;;;;;;;;;;;;
2023/09/13 04:18:30;;;;;;;138.67;62.90;;;18.40;99.90;;;;;;4734558;30;20462;-94
2023/09/13 04:24:52;;;;;;;;;;;;;;;;;;;;;
2023/09/13 04:27:56;;;;;;;142.73;60.00;;;18.30;99.90;;;;;;4664998;30;20468;-89
2023/09/13 04:35:21;;;;;;;154.90;59.53;;;18.30;99.90;;;;;;4630656;30;20471;-90
2023/09/13 04:37:47;;;;;;;142.77;59.10;;;18.30;99.90;;;;;;4599943;30;21045;-89
2023/09/13 04:41:03;;;;;;;157.90;63.20;;;18.30;99.90;;;;;;4634603;30;20542;-90
2023/09/13 04:43:31;;;;;;;124.17;53.90;;;18.20;99.90;;;;;;4732452;30;20445;-90
2023/09/13 04:46:06;;;;;;;118.70;51.53;;;18.20;99.90;;;;;;4740257;30;20400;-89
2023/09/13 04:48:33;;;;;;;118.50;53.50;;;18.20;99.90;;;;;;4813112;29;20487;-88
2023/09/13 04:50:58;;;;;;;115.97;53.87;;;18.20;99.90;;;;;;4843308;29;20422;-87
2023/09/13 04:53:25;;;;;;;113.57;50.03;;;18.10;99.90;;;;;;4842745;29;20409;-88
2023/09/13 04:55:53;;;;;;;114.67;54.47;;;18.00;99.90;;;;;;4842484;29;20650;-89
2023/09/13 04:58:19;;;;;;;112.77;50.90;;;17.90;99.90;;;;;;4842102;29;20539;-89
2023/09/13 05:00:45;;;;;;;111.67;51.10;;;17.90;99.90;;;;;;4842653;29;20916;-87
2023/09/13 05:03:10;;;;;;;112.03;53.07;;;17.90;99.90;;;;;;4842688;29;20196;-87
2023/09/13 05:05:39;;;;;;;95.23;48.60;;;17.90;99.90;;;;;;4842575;29;20208;-87
2023/09/13 05:08:04;;;;;;;100.63;49.87;;;17.80;99.90;;;;;;4842985;29;20587;-87
2023/09/13 05:10:31;;;;;;;98.20;51.27;;;17.80;99.90;;;;;;4827716;29;20441;-89
2023/09/13 05:13:00;;;;;;;79.00;43.07;;;17.80;99.90;;;;;;4842790;29;20404;-87
2023/09/13 05:15:25;;;;;;;85.97;46.07;;;17.80;99.90;;;;;;4842095;29;20408;-88
2023/09/13 05:17:51;;;;;;;91.90;43.70;;;17.80;99.90;;;;;;4842565;29;20397;-87
2023/09/13 05:20:17;;;;;;;80.13;45.13;;;17.90;99.90;;;;;;4841309;29;20581;-87
2023/09/13 05:22:42;;;;;;;78.90;42.13;;;17.90;99.90;;;;;;4842593;29;20642;-86
2023/09/13 05:25:08;;;;;;;78.23;46.33;;;17.90;99.90;;;;;;4842650;29;20203;-87
2023/09/13 05:27:34;;;;;;;76.00;45.53;;;17.90;99.90;;;;;;4827119;29;20253;-87
2023/09/13 05:29:59;;;;;;;72.63;42.87;;;17.90;99.90;;;;;;4842020;29;20560;-87
2023/09/13 05:32:25;;;;;;;82.67;43.93;;;17.90;99.90;;;;;;4857252;29;20181;-86
2023/09/13 05:34:51;;;;;;;63.63;40.77;;;17.90;99.90;;;;;;4844190;29;20200;-88
2023/09/13 05:37:16;;;;;;;66.07;41.20;;;17.90;99.90;;;;;;4841860;29;20185;-87
2023/09/13 05:39:42;;;;;;;60.33;39.33;;;17.90;99.90;;;;;;4842336;29;20229;-86
2023/09/13 05:42:07;;;;;;;56.97;36.33;;;17.90;99.90;;;;;;4841928;29;20264;-86
2023/09/13 05:44:33;;;;;;;51.77;35.17;;;18.00;99.90;;;;;;4826776;29;20638;-86
2023/09/13 05:46:59;;;;;;;54.00;36.77;;;17.90;99.90;;;;;;4841865;29;20348;-87
2023/09/13 05:49:24;;;;;;;55.70;35.93;;;17.90;99.90;;;;;;4842967;29;20199;-85
2023/09/13 05:51:50;;;;;;;55.30;35.80;;;17.90;99.90;;;;;;4842426;29;20288;-86
2023/09/13 05:54:15;;;;;;;53.80;36.77;;;17.90;99.90;;;;;;4842922;29;20180;-86
2023/09/13 05:56:41;;;;;;;63.60;35.63;;;17.90;99.90;;;;;;4857305;29;20185;-86
2023/09/13 05:59:08;;;;;;;53.40;36.10;;;17.90;99.90;;;;;;4841673;29;20240;-86
2023/09/13 06:01:35;;;;;;;56.50;34.50;;;17.90;99.90;;;;;;4842739;29;20574;-86
2023/09/13 06:04:01;;;;;;;59.80;37.30;;;17.90;99.90;;;;;;4841854;29;20425;-86
2023/09/13 06:06:27;;;;;;;56.20;35.80;;;17.90;99.90;;;;;;4848689;29;20404;-86
2023/09/13 06:08:53;;;;;;;60.40;36.57;;;17.90;99.90;;;;;;4841884;29;20457;-86
2023/09/13 06:11:19;;;;;;;56.47;34.80;;;18.00;99.90;;;;;;4826337;29;20450;-86
2023/09/13 06:13:44;;;;;;;54.83;34.20;;;17.90;99.90;;;;;;4841285;29;20193;-86
2023/09/13 06:16:10;;;;;;;52.00;31.63;;;18.00;99.90;;;;;;4841987;29;20196;-86
2023/09/13 06:18:36;;;;;;;47.20;29.93;;;17.90;99.90;;;;;;4826813;29;20188;-86
2023/09/13 06:21:03;;;;;;;57.63;34.90;;;17.90;99.90;;;;;;4811397;29;20220;-85
2023/09/13 06:23:35;;;;;;;60.60;34.50;;;17.90;99.90;;;;;;4834789;29;20816;-86
2023/09/13 06:26:01;;;;;;;52.03;32.40;;;18.00;99.90;;;;;;4841548;29;20497;-86
2023/09/13 06:28:27;;;;;;;49.20;32.10;;;18.00;99.90;;;;;;4826289;29;20416;-87
2023/09/13 06:30:52;;;;;;;84.57;34.30;;;18.00;99.90;;;;;;4842774;29;20429;-86
2023/09/13 06:33:18;;;;;;;46.57;33.07;;;18.00;99.90;;;;;;4841402;29;20193;-86
2023/09/13 06:35:44;;;;;;;47.30;33.23;;;18.10;99.90;;;;;;4841592;29;20185;-86
2023/09/13 06:38:11;;;;;;;46.70;32.33;;;18.00;99.90;;;;;;4842724;29;20233;-86
2023/09/13 06:40:39;;;;;;;39.83;27.60;;;18.00;99.90;;;;;;4826288;29;20451;-86
2023/09/13 06:43:07;;;;;;;47.33;30.00;;;18.00;99.90;;;;;;4826331;29;20412;-86
2023/09/13 06:45:32;;;;;;;42.43;28.53;;;18.00;99.90;;;;;;4841329;29;20445;-86
2023/09/13 06:47:58;;;;;;;46.73;29.63;;;18.00;99.90;;;;;;4841325;29;20462;-85
2023/09/13 06:50:24;;;;;;;48.23;31.20;;;18.00;99.90;;;;;;4856616;29;20232;-85
2023/09/13 06:52:49;;;;;;;42.60;28.70;;;18.00;99.90;;;;;;4856700;29;20237;-86
2023/09/13 06:55:16;;;;;;;48.10;31.63;;;18.00;99.90;;;;;;4856736;29;20211;-86
2023/09/13 06:57:41;;;;;;;38.90;27.30;;;18.10;99.90;;;;;;4842852;29;20185;-86
2023/09/13 07:00:10;;;;;;;40.30;28.20;;;18.00;99.90;;;;;;4858283;29;20546;-85
2023/09/13 07:02:36;;;;;;;43.47;28.70;;;18.10;99.90;;;;;;4846219;29;20209;-85
2023/09/13 07:05:03;;;;;;;45.60;28.43;;;18.00;99.90;;;;;;4845041;29;20468;-86
2023/09/13 07:07:28;;;;;;;43.73;29.73;;;17.90;99.90;;;;;;4845740;29;20188;-86
2023/09/13 07:09:54;;;;;;;41.33;28.77;;;18.00;99.90;;;;;;4859993;29;20935;-86
2023/09/13 07:12:19;;;;;;;37.33;27.97;;;17.90;99.90;;;;;;4844412;29;20180;-86
2023/09/13 07:14:45;;;;;;;47.27;30.67;;;18.00;99.90;;;;;;4845670;29;20185;-86
2023/09/13 07:17:11;;;;;;;44.90;30.27;;;18.00;99.90;;;;;;4844689;29;20664;-85
2023/09/13 07:19:36;;;;;;;45.10;29.23;;;18.00;99.90;;;;;;4844431;29;20192;-85
2023/09/13 07:22:03;;;;;;;49.10;30.37;;;18.00;99.90;;;;;;4844575;29;20185;-86
2023/09/13 07:24:29;;;;;;;40.13;30.67;;;18.10;99.90;;;;;;4859602;29;20295;-85
2023/09/13 07:26:55;;;;;;;43.60;29.33;;;18.10;99.90;;;;;;4844066;29;20400;-85
2023/09/13 07:29:21;;;;;;;39.73;27.23;;;18.10;99.90;;;;;;4844315;29;20189;-85
2023/09/13 07:31:46;;;;;;;41.77;30.07;;;18.20;99.90;;;;;;4844496;29;20415;-85
2023/09/13 07:34:12;;;;;;;38.33;27.07;;;18.20;99.90;;;;;;4845685;29;20415;-85
2023/09/13 07:36:38;;;;;;;35.43;27.27;;;18.30;99.90;;;;;;4842849;29;20189;-85
2023/09/13 07:39:04;;;;;;;36.27;27.83;;;18.40;99.90;;;;;;4825732;29;20232;-85
2023/09/13 07:41:29;;;;;;;39.40;27.13;;;18.40;99.90;;;;;;4810733;29;20559;-86
2023/09/13 07:43:55;;;;;;;38.43;26.53;;;18.50;99.90;;;;;;4826949;29;20186;-85
2023/09/13 07:46:22;;;;;;;34.73;25.83;;;18.40;99.90;;;;;;4810799;29;20708;-85
2023/09/13 07:48:48;;;;;;;39.60;28.33;;;18.40;99.90;;;;;;4811288;29;20242;-86
2023/09/13 07:51:13;;;;;;;38.40;27.27;;;18.40;99.90;;;;;;4826072;29;20417;-86
2023/09/13 07:53:42;;;;;;;33.07;26.47;;;18.30;99.90;;;;;;4810364;29;20197;-86
2023/09/13 07:56:08;;;;;;;39.10;26.90;;;18.30;99.90;;;;;;4825715;29;20186;-86
2023/09/13 07:58:34;;;;;;;37.73;28.33;;;18.10;99.90;;;;;;4826541;29;20511;-87
2023/09/13 08:00:59;;;;;;;34.00;27.07;;;18.10;99.90;;;;;;4810594;29;20569;-87
2023/09/13 08:03:25;;;;;;;41.60;31.40;;;18.10;99.90;;;;;;4810090;29;20567;-87
2023/09/13 08:05:51;;;;;;;39.10;30.10;;;18.10;99.90;;;;;;4825472;29;20590;-87
2023/09/13 08:08:22;;;;;;;46.87;31.10;;;18.10;99.90;;;;;;4824742;29;20197;-87
2023/09/13 08:10:49;;;;;;;44.03;29.10;;;18.20;99.90;;;;;;4834887;29;20191;-87
2023/09/13 08:13:15;;;;;;;37.70;28.77;;;18.30;99.90;;;;;;4862218;29;20422;-86
2023/09/13 08:15:42;;;;;;;38.60;28.60;;;18.30;99.90;;;;;;4846508;29;20582;-86
2023/09/13 08:18:07;;;;;;;38.27;28.23;;;18.50;99.90;;;;;;4861860;29;20555;-85
2023/09/13 08:20:33;;;;;;;37.40;27.47;;;18.80;99.90;;;;;;4861406;29;20542;-85
2023/09/13 08:22:58;;;;;;;30.33;25.03;;;19.00;99.90;;;;;;4846375;29;20203;-85
2023/09/13 08:25:24;;;;;;;26.20;23.40;;;19.10;99.90;;;;;;4861891;29;20196;-86
2023/09/13 08:27:51;;;;;;;28.03;23.00;;;19.20;99.90;;;;;;4862872;29;20196;-86
2023/09/13 08:30:16;;;;;;;30.07;20.80;;;19.30;99.90;;;;;;4846442;29;20196;-85
2023/09/13 08:32:42;;;;;;;25.53;21.10;;;19.40;99.90;;;;;;4861768;29;20436;-87
2023/09/13 08:35:08;;;;;;;27.20;22.20;;;19.50;99.90;;;;;;4861551;29;20202;-87
2023/09/13 08:37:33;;;;;;;26.07;19.03;;;19.60;99.90;;;;;;4862320;29;20262;-86
2023/09/13 08:39:59;;;;;;;27.30;21.57;;;19.50;99.90;;;;;;4861680;29;20280;-86
2023/09/13 08:42:28;;;;;;;24.93;20.50;;;19.50;99.90;;;;;;4862854;29;20275;-86
2023/09/13 08:44:56;;;;;;;29.77;20.10;;;19.50;99.90;;;;;;4861568;29;20638;-87
2023/09/13 08:47:26;;;;;;;25.90;20.53;;;19.60;99.90;;;;;;4860755;29;20480;-87
2023/09/13 08:49:53;;;;;;;23.30;17.23;;;19.90;99.90;;;;;;4862595;29;20476;-87
2023/09/13 08:52:20;;;;;;;24.20;18.70;;;20.10;99.90;;;;;;4861001;29;20427;-88
2023/09/13 08:54:48;;;;;;;21.33;16.93;;;20.30;99.90;;;;;;4860815;29;20433;-87
2023/09/13 08:57:14;;;;;;;22.97;16.10;;;20.40;99.90;;;;;;4861325;29;20457;-89
2023/09/13 08:59:39;;;;;;;20.67;16.60;;;20.20;99.90;;;;;;4860708;29;20448;-87
2023/09/13 09:02:12;;;;;;;22.20;15.27;;;20.40;99.90;;;;;;4845619;29;20448;-88
2023/09/13 09:04:38;;;;;;;21.43;16.37;;;20.30;99.90;;;;;;4862240;29;20336;-87
2023/09/13 09:07:05;;;;;;;23.23;17.07;;;20.20;99.90;;;;;;4841265;29;20524;-87
2023/09/13 09:09:31;;;;;;;23.63;18.33;;;20.30;99.90;;;;;;4857712;29;20189;-87
2023/09/13 09:11:59;;;;;;;23.70;15.70;;;20.20;99.90;;;;;;4858010;29;20854;-87
2023/09/13 09:14:33;;;;;;;24.53;17.20;;;20.20;99.90;;;;;;4842069;29;20533;-86
2023/09/13 09:17:00;;;;;;;17.30;14.90;;;20.20;99.90;;;;;;4842420;29;20441;-87
2023/09/13 09:19:26;;;;;;;22.50;16.13;;;20.20;99.90;;;;;;4842422;29;20417;-86
2023/09/13 09:21:53;;;;;;;20.93;16.37;;;20.20;99.90;;;;;;4843268;29;20414;-86
2023/09/13 09:24:18;;;;;;;21.23;16.23;;;20.30;99.90;;;;;;4843510;29;20420;-87
2023/09/13 09:26:45;;;;;;;21.73;16.83;;;20.20;99.90;;;;;;4811976;29;20533;-86
2023/09/13 09:29:18;;;;;;;21.40;15.67;;;20.40;99.90;;;;;;4842383;29;20184;-86
2023/09/13 09:31:44;;;;;;;20.70;15.83;;;20.60;99.90;;;;;;4843296;29;20403;-87
2023/09/13 09:34:10;;;;;;;16.57;12.47;;;20.70;99.90;;;;;;4842540;29;20415;-86
2023/09/13 09:36:42;;;;;;;16.53;13.40;;;21.10;99.90;;;;;;4826990;29;20944;-87
2023/09/13 09:39:08;;;;;;;20.73;14.80;;;21.60;99.90;;;;;;4843012;29;20436;-84
2023/09/13 09:41:37;;;;;;;15.60;11.50;;;22.00;99.90;;;;;;4841833;29;20907;-84
2023/09/13 09:44:04;;;;;;;19.03;11.93;;;21.90;99.90;;;;;;4841685;29;20192;-84
2023/09/13 09:46:34;;;;;;;14.10;11.80;;;22.00;99.90;;;;;;4841680;29;20793;-84
2023/09/13 09:49:04;;;;;;;15.73;12.80;;;22.50;99.90;;;;;;4857571;29;20408;-84
2023/09/13 09:51:33;;;;;;;17.30;12.77;;;22.50;99.90;;;;;;4841659;29;20449;-84
2023/09/13 09:53:59;;;;;;;18.50;13.50;;;22.50;99.90;;;;;;4843017;29;20418;-84
2023/09/13 09:56:25;;;;;;;15.83;13.00;;;22.10;99.90;;;;;;4841426;29;20404;-87
2023/09/13 09:58:51;;;;;;;17.10;12.27;;;21.70;99.90;;;;;;4826455;29;20452;-85
2023/09/13 10:01:18;;;;;;;16.20;13.43;;;21.50;99.90;;;;;;4841333;29;20295;-86
2023/09/13 10:03:44;;;;;;;17.20;13.30;;;21.20;99.90;;;;;;4842017;29;20413;-87
2023/09/13 10:06:14;;;;;;;17.00;12.03;;;21.00;99.90;;;;;;4843354;29;20419;-85
2023/09/13 10:08:47;;;;;;;15.47;10.97;;;21.10;99.90;;;;;;4841482;29;20454;-85
2023/09/13 10:11:22;;;;;;;15.33;11.60;;;21.10;99.90;;;;;;4828517;29;20448;-86
2023/09/13 10:13:49;;;;;;;15.40;11.60;;;21.00;99.90;;;;;;4841831;29;20395;-85
2023/09/13 10:16:16;;;;;;;14.30;11.87;;;21.00;99.90;;;;;;4842766;29;20474;-85
2023/09/13 10:18:52;;;;;;;15.00;10.83;;;21.00;99.90;;;;;;4841203;29;20426;-85
2023/09/13 10:21:27;;;;;;;17.93;12.20;;;20.90;99.90;;;;;;4842634;29;20959;-84
2023/09/13 10:24:06;;;;;;;12.80;10.70;;;21.00;99.90;;;;;;4857309;29;20404;-85
2023/09/13 10:26:32;;;;;;;14.03;10.80;;;21.00;99.90;;;;;;4841460;29;20404;-85
2023/09/13 10:29:05;;;;;;;13.60;11.60;;;21.00;99.90;;;;;;4841817;29;20751;-84
2023/09/13 10:31:38;;;;;;;14.70;11.10;;;21.10;99.90;;;;;;4842947;29;20418;-85
2023/09/13 10:34:09;;;;;;;11.70;10.40;;;21.20;99.90;;;;;;4846302;29;20479;-85
2023/09/13 10:36:39;;;;;;;15.60;10.60;;;21.30;99.90;;;;;;4846436;29;20413;-86
2023/09/13 10:39:27;;;;;;;14.60;10.00;;;21.50;99.90;;;;;;4846407;29;20416;-85
2023/09/13 10:42:02;;;;;;;15.53;8.67;;;21.60;99.90;;;;;;4844972;29;20951;-85
2023/09/13 10:44:27;;;;;;;11.80;9.40;;;21.70;99.90;;;;;;4846572;29;20886;-85
2023/09/13 10:46:55;;;;;;;13.57;8.77;;;21.70;99.90;;;;;;4845219;29;20432;-85
2023/09/13 10:49:21;;;;;;;15.30;9.17;;;21.70;99.90;;;;;;4845249;29;20303;-86
2023/09/13 10:51:47;;;;;;;13.03;8.80;;;21.90;99.90;;;;;;4814436;29;20934;-85
2023/09/13 10:54:15;;;;;;;10.50;9.40;;;22.00;99.90;;;;;;4829435;29;20195;-85
2023/09/13 10:56:41;;;;;;;10.03;8.97;;;22.50;99.90;;;;;;4844684;29;20478;-85
2023/09/13 10:59:09;;;;;;;12.33;9.40;;;22.90;99.90;;;;;;4844843;29;20833;-85
2023/09/13 11:01:36;;;;;;;10.87;8.07;;;23.20;99.90;;;;;;4844395;29;20957;-85
2023/09/13 11:04:04;;;;;;;13.00;8.10;;;23.50;99.90;;;;;;4844814;29;20433;-85
2023/09/13 11:06:30;;;;;;;10.70;8.43;;;23.40;99.90;;;;;;4829290;29;20942;-86
2023/09/13 11:09:13;;;;;;;10.10;7.87;;;23.50;99.90;;;;;;4829107;29;20449;-86
2023/09/13 11:11:44;;;;;;;11.20;7.80;;;23.50;99.90;;;;;;4845378;29;20831;-85
2023/09/13 11:14:12;;;;;;;11.37;8.57;;;23.20;99.90;;;;;;4844574;29;20426;-85
2023/09/13 11:16:39;;;;;;;12.03;9.13;;;22.70;99.90;;;;;;4844470;29;20438;-87
2023/09/13 11:19:10;;;;;;;10.93;8.53;;;22.40;99.90;;;;;;4844250;29;20838;-85
2023/09/13 11:21:50;;;;;;;10.53;8.30;;;22.20;99.90;;;;;;4845542;29;20454;-86
2023/09/13 11:24:34;;;;;;;10.77;8.50;;;22.10;99.90;;;;;;4844352;29;20847;-86
2023/09/13 11:27:13;;;;;;;9.30;7.87;;;22.40;99.90;;;;;;4844782;29;20412;-86
2023/09/13 11:29:46;;;;;;;13.83;10.17;;;22.70;99.90;;;;;;4844156;29;20790;-87
2023/09/13 11:32:20;;;;;;;10.90;8.40;;;23.00;99.90;;;;;;4843845;29;20430;-85
2023/09/13 11:34:56;;;;;;;11.10;8.73;;;23.40;99.90;;;;;;4845532;29;20433;-85
2023/09/13 11:37:24;;;;;;;14.37;9.90;;;23.30;99.90;;;;;;4844503;29;20817;-86
2023/09/13 11:40:07;;;;;;;11.00;9.40;;;23.20;99.90;;;;;;4845105;29;20585;-85
2023/09/13 11:42:33;;;;;;;11.77;9.90;;;22.90;99.90;;;;;;4843667;29;20516;-86
2023/09/13 11:44:59;;;;;;;20.30;11.60;;;22.70;99.90;;;;;;4813047;29;20430;-86
2023/09/13 11:47:26;;;;;;;13.80;11.07;;;22.40;99.90;;;;;;4843815;29;20548;-85
2023/09/13 11:49:55;;;;;;;11.27;9.90;;;22.50;99.90;;;;;;4845317;29;20833;-85
2023/09/13 11:52:22;;;;;;;14.60;9.70;;;22.60;99.90;;;;;;4859527;29;20405;-86
2023/09/13 11:54:53;;;;;;;13.97;10.73;;;22.50;99.90;;;;;;4844836;29;20468;-85
2023/09/13 11:57:22;;;;;;;12.27;8.83;;;22.50;99.90;;;;;;4843968;29;20943;-85
2023/09/13 11:59:52;;;;;;;14.67;9.40;;;22.80;99.90;;;;;;4827899;29;20480;-85
2023/09/13 12:02:18;;;;;;;12.70;7.97;;;22.90;99.90;;;;;;4845000;29;20437;-85
2023/09/13 12:04:44;;;;;;;9.77;8.17;;;22.70;99.90;;;;;;4828396;29;20895;-86
2023/09/13 12:07:10;;;;;;;8.90;7.03;;;21.90;99.90;;;;;;4844987;29;20265;-90
2023/09/13 12:09:36;;;;;;;9.97;6.30;;;21.50;99.90;;;;;;4843209;29;20469;-86
2023/09/13 12:12:02;;;;;;;5.57;5.03;;;20.70;99.90;;;;;;4843422;29;20441;-87
2023/09/13 12:14:30;;;;;;;5.13;4.63;;;20.00;99.90;;;;;;4843185;29;20216;-87
2023/09/13 12:16:57;;;;;;;4.70;3.50;;;19.40;99.90;;;;;;4843543;29;20473;-86
2023/09/13 12:19:24;;;;;;;4.00;2.90;;;19.10;99.90;;;;;;4828431;29;20445;-86
2023/09/13 12:21:50;;;;;;;4.17;2.73;;;18.70;99.90;;;;;;4827984;29;20488;-86
2023/09/13 12:24:20;;;;;;;4.47;2.20;;;18.30;99.90;;;;;;4843514;29;20430;-86
2023/09/13 12:26:45;;;;;;;3.00;2.70;;;18.00;99.90;;;;;;4843586;29;20276;-86
2023/09/13 12:29:13;;;;;;;3.10;2.80;;;17.90;99.90;;;;;;4843809;29;20942;-86
2023/09/13 12:31:40;;;;;;;3.47;3.17;;;17.70;99.90;;;;;;4844764;29;20192;-86
2023/09/13 12:34:06;;;;;;;4.73;2.37;;;17.70;99.90;;;;;;4828287;29;20405;-86
2023/09/13 12:36:33;;;;;;;3.13;2.83;;;17.60;99.90;;;;;;4843163;29;20405;-89
2023/09/13 12:38:59;;;;;;;3.70;2.30;;;17.50;99.90;;;;;;4828700;29;20497;-86
2023/09/13 12:41:34;;;;;;;6.03;3.03;;;17.40;99.90;;;;;;4828634;29;20576;-85
2023/09/13 12:44:00;;;;;;;2.60;2.40;;;17.30;99.90;;;;;;4843552;29;20400;-86
2023/09/13 12:46:27;;;;;;;3.30;3.00;;;17.30;99.90;;;;;;4844558;29;20440;-86
2023/09/13 12:48:56;;;;;;;3.53;3.20;;;17.20;99.90;;;;;;4827833;29;20434;-86
2023/09/13 12:51:30;;;;;;;4.37;3.97;;;17.30;99.90;;;;;;4843596;29;20467;-87
2023/09/13 12:53:58;;;;;;;4.63;4.10;;;17.20;99.90;;;;;;4842773;29;20486;-87
2023/09/13 12:56:24;;;;;;;5.00;4.60;;;17.20;99.90;;;;;;4824008;29;20426;-87
2023/09/13 12:58:52;;;;;;;4.83;4.43;;;17.30;99.90;;;;;;4839532;29;20527;-86
2023/09/13 13:01:19;;;;;;;4.87;4.37;;;17.50;99.90;;;;;;4824796;29;20228;-87
2023/09/13 13:04:01;;;;;;;5.90;4.87;;;17.60;99.90;;;;;;4836907;29;20462;-86
2023/09/13 13:06:27;;;;;;;6.30;5.70;;;17.80;99.90;;;;;;4824695;29;20462;-89
2023/09/13 13:09:05;;;;;;;6.23;5.63;;;17.60;99.90;;;;;;4824319;29;20434;-88
2023/09/13 13:11:40;;;;;;;7.53;6.50;;;17.80;99.90;;;;;;4824712;29;20435;-88
2023/09/13 13:14:19;;;;;;;7.87;7.17;;;17.80;99.90;;;;;;4824713;29;20434;-87
2023/09/13 13:16:55;;;;;;;7.50;6.90;;;17.70;99.90;;;;;;5091091;27;20532;-87
2023/09/13 13:19:33;;;;;;;8.80;7.83;;;17.60;99.90;;;;;;5090245;28;20484;-86
2023/09/13 13:21:59;;;;;;;11.87;10.77;;;17.80;99.90;;;;;;5089908;28;20426;-86
2023/09/13 13:24:27;;;;;;;12.40;10.83;;;17.60;99.90;;;;;;5089852;28;20847;-87
2023/09/13 13:26:53;;;;;;;12.47;11.37;;;17.70;99.90;;;;;;5072849;28;20419;-87